Time;durP1;ratioP1;P1;durP2;ratioP2;P2;SDS_P1;SDS_P2;PMS_P1;PMS_P2;Temp;Humidity;BMP_temperature;BMP_pressure;BME280_temperature;BME280_humidity;BME280_pressure;Samples;Min_cycle;Max_cycle;Signal;HPM_P1;HPM_P2
2022/11/08 00:01:34;;;;;;;10.15;7.88;;;;;;;;;;5035757;28;20113;-68
2022/11/08 00:04:02;;;;;;;11.77;8.32;;;;;;;;;;5035762;28;20106;-68
2022/11/08 00:14:41;;;;;;;9.65;7.43;;;;;;;;;;5035516;28;20060;-67
2022/11/08 00:17:07;;;;;;;10.10;7.60;;;;;;;;;;5035666;28;20057;-67
2022/11/08 00:19:33;;;;;;;10.05;7.55;;;;;;;;;;5033591;28;20109;-66
2022/11/08 00:21:58;;;;;;;9.20;7.05;;;;;;;;;;5035443;28;20112;-67
2022/11/08 00:24:24;;;;;;;11.73;8.10;;;;;;;;;;5035301;28;20108;-67
2022/11/08 00:26:50;;;;;;;9.23;7.68;;;;;;;;;;5035567;28;20083;-67
2022/11/08 00:29:15;;;;;;;9.77;7.68;;;;;;;;;;5035265;28;20490;-67
2022/11/08 00:31:43;;;;;;;11.02;8.20;;;;;;;;;;5035145;28;20053;-68
2022/11/08 00:34:08;;;;;;;10.00;7.68;;;;;;;;;;5035061;28;20033;-67
2022/11/08 00:36:34;;;;;;;9.55;7.85;;;;;;;;;;5035159;28;20035;-68
2022/11/08 00:38:59;;;;;;;9.85;7.47;;;;;;;;;;5034963;28;20056;-69
2022/11/08 00:41:25;;;;;;;11.13;8.27;;;;;;;;;;5028745;28;20057;-69
2022/11/08 00:43:51;;;;;;;10.93;8.10;;;;;;;;;;5015250;28;20485;-69
2022/11/08 00:46:16;;;;;;;8.70;6.97;;;;;;;;;;5015191;28;20022;-68
2022/11/08 00:48:41;;;;;;;9.93;8.20;;;;;;;;;;5015100;28;20368;-69
2022/11/08 00:51:09;;;;;;;9.32;7.55;;;;;;;;;;5021857;28;20163;-68
2022/11/08 00:53:39;;;;;;;10.13;7.90;;;;;;;;;;5031957;28;20473;-69
2022/11/08 00:56:06;;;;;;;9.98;7.13;;;;;;;;;;5033059;28;20026;-69
2022/11/08 00:58:32;;;;;;;10.75;7.93;;;;;;;;;;5033204;28;20061;-69
2022/11/08 01:00:59;;;;;;;9.10;7.47;;;;;;;;;;5030923;28;20048;-69
2022/11/08 01:03:25;;;;;;;11.27;8.13;;;;;;;;;;5032126;28;20095;-69
2022/11/08 01:05:53;;;;;;;9.35;7.60;;;;;;;;;;5030641;28;20036;-68
2022/11/08 01:08:22;;;;;;;11.13;8.02;;;;;;;;;;5033200;28;20053;-69
2022/11/08 01:10:50;;;;;;;11.77;7.75;;;;;;;;;;5032286;28;20158;-69
2022/11/08 01:13:16;;;;;;;9.73;7.75;;;;;;;;;;5030759;28;20025;-69
2022/11/08 01:15:43;;;;;;;9.95;7.78;;;;;;;;;;5031949;28;20025;-69
2022/11/08 01:18:10;;;;;;;9.15;7.13;;;;;;;;;;5033823;28;20075;-69
2022/11/08 01:20:40;;;;;;;10.07;8.05;;;;;;;;;;5033855;28;20029;-69
2022/11/08 01:23:06;;;;;;;10.15;7.68;;;;;;;;;;5034041;28;20116;-68
2022/11/08 01:25:36;;;;;;;9.70;7.40;;;;;;;;;;5033467;28;20125;-68
2022/11/08 01:28:01;;;;;;;11.23;7.57;;;;;;;;;;5034463;28;20033;-69
2022/11/08 01:30:27;;;;;;;9.23;7.65;;;;;;;;;;5034046;28;20370;-69
2022/11/08 01:32:52;;;;;;;9.32;7.47;;;;;;;;;;5034122;28;20053;-69
2022/11/08 01:35:18;;;;;;;8.80;7.53;;;;;;;;;;5034314;28;20033;-68
2022/11/08 01:37:43;;;;;;;8.60;7.15;;;;;;;;;;5034088;28;20603;-69
2022/11/08 01:40:09;;;;;;;10.60;7.72;;;;;;;;;;5033980;28;20032;-68
2022/11/08 01:42:35;;;;;;;8.93;7.40;;;;;;;;;;5033878;28;20121;-68
2022/11/08 01:45:06;;;;;;;9.65;7.30;;;;;;;;;;5033886;28;20108;-69
2022/11/08 01:47:32;;;;;;;9.20;7.40;;;;;;;;;;5033803;28;20018;-67
2022/11/08 01:50:04;;;;;;;11.50;8.23;;;;;;;;;;5033784;28;20040;-69
2022/11/08 01:52:35;;;;;;;9.02;7.20;;;;;;;;;;5033825;28;20040;-69
2022/11/08 01:55:10;;;;;;;10.25;7.85;;;;;;;;;;5033652;28;20034;-68
2022/11/08 01:58:01;;;;;;;8.75;7.38;;;;;;;;;;5033705;28;20037;-69
2022/11/08 02:00:26;;;;;;;8.95;7.22;;;;;;;;;;5033994;28;20044;-69
2022/11/08 02:03:03;;;;;;;9.40;7.65;;;;;;;;;;5033557;28;20365;-69
2022/11/08 02:05:30;;;;;;;8.45;7.03;;;;;;;;;;5033496;28;20033;-69
2022/11/08 02:07:58;;;;;;;9.32;7.30;;;;;;;;;;5033260;28;20509;-68
2022/11/08 02:10:29;;;;;;;8.40;7.28;;;;;;;;;;5033275;28;20614;-68
2022/11/08 02:12:55;;;;;;;8.90;6.90;;;;;;;;;;5033480;28;20029;-69
2022/11/08 02:15:23;;;;;;;8.55;6.95;;;;;;;;;;5033214;28;20416;-69
2022/11/08 02:17:49;;;;;;;7.78;6.97;;;;;;;;;;5033107;28;20044;-69
2022/11/08 02:20:15;;;;;;;8.93;7.07;;;;;;;;;;5033161;28;20096;-68
2022/11/08 02:22:56;;;;;;;8.55;7.13;;;;;;;;;;5032997;28;20041;-68
2022/11/08 02:25:22;;;;;;;9.90;7.45;;;;;;;;;;5033136;28;20025;-68
2022/11/08 02:27:47;;;;;;;10.43;7.30;;;;;;;;;;5032982;28;20108;-69
2022/11/08 02:30:13;;;;;;;8.40;7.03;;;;;;;;;;5033243;28;20083;-69
2022/11/08 02:32:39;;;;;;;7.95;6.45;;;;;;;;;;5032944;28;20056;-69
2022/11/08 02:35:10;;;;;;;9.77;7.25;;;;;;;;;;5032780;28;20033;-68
2022/11/08 02:37:36;;;;;;;9.50;7.85;;;;;;;;;;5031654;28;20032;-68
2022/11/08 02:40:03;;;;;;;9.70;6.95;;;;;;;;;;5032771;28;20022;-68
2022/11/08 02:42:28;;;;;;;8.77;6.65;;;;;;;;;;5032824;28;20057;-67
2022/11/08 02:44:54;;;;;;;9.23;6.95;;;;;;;;;;5032775;28;20028;-66
2022/11/08 02:47:19;;;;;;;8.38;6.82;;;;;;;;;;5032660;28;20087;-67
2022/11/08 02:49:45;;;;;;;10.20;7.22;;;;;;;;;;5033023;28;20392;-66
2022/11/08 02:52:11;;;;;;;9.18;6.90;;;;;;;;;;5032717;28;20104;-66
2022/11/08 02:54:37;;;;;;;8.88;7.28;;;;;;;;;;5031234;28;20124;-66
2022/11/08 02:57:02;;;;;;;8.68;6.65;;;;;;;;;;5032663;28;20068;-67
2022/11/08 02:59:28;;;;;;;8.73;7.63;;;;;;;;;;5032569;28;20029;-69
2022/11/08 03:01:53;;;;;;;9.02;6.80;;;;;;;;;;5032473;28;20025;-67
2022/11/08 03:04:19;;;;;;;8.88;6.78;;;;;;;;;;5032483;28;20021;-70
2022/11/08 03:06:44;;;;;;;8.52;7.07;;;;;;;;;;5032173;28;20513;-68
2022/11/08 03:09:10;;;;;;;8.05;6.35;;;;;;;;;;5032487;28;20381;-67
2022/11/08 03:11:35;;;;;;;8.18;6.75;;;;;;;;;;5032690;28;20017;-67
2022/11/08 03:14:01;;;;;;;10.43;7.10;;;;;;;;;;5032247;28;20018;-67
2022/11/08 03:16:27;;;;;;;8.45;6.80;;;;;;;;;;5032444;28;20030;-69
2022/11/08 03:18:52;;;;;;;8.05;6.65;;;;;;;;;;5032585;28;20026;-68
2022/11/08 03:21:18;;;;;;;9.30;7.40;;;;;;;;;;5031783;28;20436;-67
2022/11/08 03:23:44;;;;;;;7.40;6.65;;;;;;;;;;5032299;28;20469;-67
2022/11/08 03:26:09;;;;;;;8.88;6.95;;;;;;;;;;5032292;28;20025;-67
2022/11/08 03:28:35;;;;;;;8.15;6.95;;;;;;;;;;5032179;28;20501;-67
2022/11/08 03:31:00;;;;;;;8.07;6.30;;;;;;;;;;5032261;28;20112;-69
2022/11/08 03:33:26;;;;;;;8.23;6.85;;;;;;;;;;5032176;28;20025;-68
2022/11/08 03:35:52;;;;;;;10.80;7.40;;;;;;;;;;5032096;28;20034;-68
2022/11/08 03:38:18;;;;;;;8.70;7.15;;;;;;;;;;5032454;28;20072;-68
2022/11/08 03:40:44;;;;;;;9.15;7.65;;;;;;;;;;5032094;28;20026;-68
2022/11/08 03:43:10;;;;;;;8.02;6.88;;;;;;;;;;5032414;28;20409;-68
2022/11/08 03:45:36;;;;;;;9.00;6.65;;;;;;;;;;5032105;28;20029;-67
2022/11/08 03:48:01;;;;;;;8.10;6.88;;;;;;;;;;5032086;28;20033;-67
2022/11/08 03:50:27;;;;;;;7.70;6.72;;;;;;;;;;5032075;28;20033;-69
2022/11/08 03:52:54;;;;;;;9.63;6.68;;;;;;;;;;5031967;28;20032;-68
2022/11/08 03:55:22;;;;;;;8.82;6.80;;;;;;;;;;5031957;28;20033;-68
2022/11/08 03:57:49;;;;;;;9.43;6.68;;;;;;;;;;5031876;28;20080;-67
2022/11/08 04:00:20;;;;;;;8.68;6.43;;;;;;;;;;5031875;28;20057;-67
2022/11/08 04:02:46;;;;;;;9.20;7.03;;;;;;;;;;5032276;28;20029;-68
2022/11/08 04:05:13;;;;;;;7.97;6.50;;;;;;;;;;5032152;28;20473;-67
2022/11/08 04:07:39;;;;;;;8.68;6.82;;;;;;;;;;5031740;28;20120;-68
2022/11/08 04:10:06;;;;;;;8.18;6.63;;;;;;;;;;5031887;28;20108;-68
2022/11/08 04:15:20;;;;;;;7.28;6.45;;;;;;;;;;5031966;28;20108;-69
2022/11/08 04:23:20;;;;;;;8.02;6.10;;;;;;;;;;5032091;28;20087;-69
2022/11/08 04:25:52;;;;;;;7.82;6.45;;;;;;;;;;5031748;28;20033;-68
2022/11/08 04:28:18;;;;;;;8.15;6.28;;;;;;;;;;5031741;28;20022;-69
2022/11/08 04:30:43;;;;;;;8.43;7.00;;;;;;;;;;5031938;28;20428;-68
2022/11/08 04:33:09;;;;;;;8.40;6.75;;;;;;;;;;5034162;28;20469;-68
2022/11/08 04:35:34;;;;;;;8.20;6.75;;;;;;;;;;5035403;28;20038;-69
2022/11/08 04:38:01;;;;;;;7.82;6.75;;;;;;;;;;5035162;28;20018;-68
2022/11/08 04:40:28;;;;;;;8.10;6.15;;;;;;;;;;5035415;28;20029;-69
2022/11/08 04:42:54;;;;;;;9.00;6.28;;;;;;;;;;5035078;28;20401;-68
2022/11/08 04:45:20;;;;;;;8.27;6.60;;;;;;;;;;5035045;28;20043;-68
2022/11/08 04:47:46;;;;;;;7.68;6.32;;;;;;;;;;5035043;28;20355;-69
2022/11/08 04:50:12;;;;;;;8.48;6.35;;;;;;;;;;5035253;28;20026;-70
2022/11/08 04:52:38;;;;;;;8.73;6.43;;;;;;;;;;5034771;28;20029;-69
2022/11/08 04:55:04;;;;;;;9.30;6.55;;;;;;;;;;5034792;28;20095;-70
2022/11/08 04:57:29;;;;;;;9.57;6.60;;;;;;;;;;5034778;28;20109;-69
2022/11/08 04:59:55;;;;;;;8.05;6.15;;;;;;;;;;5034765;28;20057;-70
2022/11/08 05:02:20;;;;;;;7.13;6.43;;;;;;;;;;5034799;28;20416;-71
2022/11/08 05:04:46;;;;;;;6.88;6.03;;;;;;;;;;5034893;28;20075;-69
2022/11/08 05:07:11;;;;;;;7.68;6.47;;;;;;;;;;5034391;28;20038;-69
2022/11/08 05:09:37;;;;;;;7.45;6.63;;;;;;;;;;5034607;28;20079;-70
2022/11/08 05:12:03;;;;;;;8.10;6.32;;;;;;;;;;5034761;28;20074;-70
2022/11/08 05:14:28;;;;;;;7.78;5.78;;;;;;;;;;5034291;28;20461;-69
2022/11/08 05:16:54;;;;;;;8.48;6.78;;;;;;;;;;5034408;28;20024;-67
2022/11/08 05:23:22;;;;;;;7.72;6.85;;;;;;;;;;5034248;28;20021;-69
2022/11/08 05:24:49;;;;;;;7.80;6.80;;;;;;;;;;5034261;28;20087;-69
2022/11/08 05:27:14;;;;;;;7.10;5.97;;;;;;;;;;5034145;28;20025;-68
2022/11/08 05:29:40;;;;;;;8.77;6.22;;;;;;;;;;5034138;28;20083;-70
2022/11/08 05:32:05;;;;;;;8.60;6.30;;;;;;;;;;5032952;28;20209;-70
2022/11/08 05:34:31;;;;;;;7.78;6.22;;;;;;;;;;5034025;28;20022;-68
2022/11/08 05:36:56;;;;;;;8.30;6.40;;;;;;;;;;5033996;28;20436;-68
2022/11/08 05:39:22;;;;;;;6.45;5.45;;;;;;;;;;5033992;28;20461;-70
2022/11/08 05:41:47;;;;;;;7.70;5.90;;;;;;;;;;5033912;28;20032;-68
2022/11/08 05:44:13;;;;;;;7.03;5.82;;;;;;;;;;5033478;28;20030;-69
2022/11/08 05:46:39;;;;;;;7.20;6.18;;;;;;;;;;5033880;28;20032;-69
2022/11/08 05:49:04;;;;;;;7.50;6.38;;;;;;;;;;5034036;28;20033;-69
2022/11/08 05:51:30;;;;;;;7.93;6.30;;;;;;;;;;5034110;28;20428;-69
2022/11/08 05:53:56;;;;;;;7.18;5.70;;;;;;;;;;5033526;28;20547;-68
2022/11/08 05:56:22;;;;;;;6.43;5.78;;;;;;;;;;5033633;28;20029;-69
2022/11/08 05:58:47;;;;;;;6.55;5.72;;;;;;;;;;5033544;28;20029;-69
2022/11/08 06:01:15;;;;;;;8.75;6.72;;;;;;;;;;5033489;28;20021;-70
2022/11/08 06:03:41;;;;;;;7.50;6.45;;;;;;;;;;5033588;28;20033;-69
2022/11/08 06:06:12;;;;;;;7.35;6.47;;;;;;;;;;5032197;28;20025;-68
2022/11/08 06:08:39;;;;;;;10.15;6.32;;;;;;;;;;5033185;28;20128;-68
2022/11/08 06:11:10;;;;;;;7.93;6.22;;;;;;;;;;5033334;28;20033;-70
2022/11/08 06:13:38;;;;;;;6.97;5.63;;;;;;;;;;5033494;28;20071;-70
2022/11/08 06:16:09;;;;;;;6.82;6.10;;;;;;;;;;5033187;28;20025;-67
2022/11/08 06:18:35;;;;;;;6.70;6.00;;;;;;;;;;5033419;28;20029;-69
2022/11/08 06:21:02;;;;;;;8.88;6.13;;;;;;;;;;5033089;28;20210;-70
2022/11/08 06:23:28;;;;;;;7.82;6.38;;;;;;;;;;5033025;28;20061;-70
2022/11/08 06:25:54;;;;;;;7.00;5.93;;;;;;;;;;5033073;28;20110;-69
2022/11/08 06:28:19;;;;;;;7.20;5.93;;;;;;;;;;5032915;28;20045;-70
2022/11/08 06:30:45;;;;;;;7.68;6.10;;;;;;;;;;5032929;28;20033;-70
2022/11/08 06:33:11;;;;;;;7.07;6.32;;;;;;;;;;5033138;28;20025;-69
2022/11/08 06:35:37;;;;;;;8.30;5.70;;;;;;;;;;5033073;28;20413;-69
2022/11/08 06:38:03;;;;;;;10.00;6.78;;;;;;;;;;5032710;28;20461;-68
2022/11/08 06:40:31;;;;;;;6.63;5.93;;;;;;;;;;5024825;28;20034;-71
2022/11/08 06:42:57;;;;;;;8.23;6.68;;;;;;;;;;5026386;28;20161;-69
2022/11/08 06:45:24;;;;;;;6.95;5.72;;;;;;;;;;5032138;28;20549;-70
2022/11/08 06:47:55;;;;;;;6.88;6.07;;;;;;;;;;5030170;28;20125;-68
2022/11/08 06:50:20;;;;;;;7.00;5.95;;;;;;;;;;5032522;28;20021;-69
2022/11/08 06:52:46;;;;;;;7.82;6.38;;;;;;;;;;5031150;28;20087;-69
2022/11/08 06:55:11;;;;;;;8.50;5.80;;;;;;;;;;5030446;28;20472;-69
2022/11/08 06:57:37;;;;;;;7.78;6.07;;;;;;;;;;5031934;28;20033;-69
2022/11/08 07:00:03;;;;;;;8.07;6.00;;;;;;;;;;5032359;28;20064;-69
2022/11/08 07:02:29;;;;;;;6.90;5.85;;;;;;;;;;5032346;28;20030;-69
2022/11/08 07:04:55;;;;;;;6.70;5.65;;;;;;;;;;5032293;28;20079;-68
2022/11/08 07:07:20;;;;;;;7.32;5.53;;;;;;;;;;5032001;28;20389;-69
2022/11/08 07:09:46;;;;;;;7.53;5.88;;;;;;;;;;5032322;28;20033;-69
2022/11/08 07:12:11;;;;;;;7.80;6.07;;;;;;;;;;5030925;28;20029;-69
2022/11/08 07:14:37;;;;;;;7.25;5.65;;;;;;;;;;5032254;28;20037;-69
2022/11/08 07:17:03;;;;;;;8.25;5.90;;;;;;;;;;5032201;28;20022;-69
2022/11/08 07:19:28;;;;;;;10.48;6.07;;;;;;;;;;5032275;28;20029;-69
2022/11/08 07:21:54;;;;;;;6.88;5.57;;;;;;;;;;5032188;28;20026;-69
2022/11/08 07:24:19;;;;;;;7.50;5.82;;;;;;;;;;5032578;28;20641;-69
2022/11/08 07:26:45;;;;;;;7.32;5.88;;;;;;;;;;5032206;28;20018;-69
2022/11/08 07:29:10;;;;;;;6.18;5.57;;;;;;;;;;5032283;28;20101;-70
2022/11/08 07:31:36;;;;;;;6.63;5.78;;;;;;;;;;5032052;28;20033;-69
2022/11/08 07:34:01;;;;;;;6.55;5.70;;;;;;;;;;5032032;28;20029;-69
2022/11/08 07:36:27;;;;;;;7.38;5.80;;;;;;;;;;5032416;28;20053;-69
2022/11/08 07:38:52;;;;;;;6.32;5.47;;;;;;;;;;5032026;28;20461;-69
2022/11/08 07:41:18;;;;;;;6.03;5.43;;;;;;;;;;5032118;28;20076;-69
2022/11/08 07:43:43;;;;;;;6.50;5.80;;;;;;;;;;5032119;28;20025;-69
2022/11/08 07:46:09;;;;;;;7.30;5.70;;;;;;;;;;5031995;28;20053;-69
2022/11/08 07:48:34;;;;;;;7.45;5.80;;;;;;;;;;5032106;28;20143;-70
2022/11/08 07:51:00;;;;;;;6.70;5.93;;;;;;;;;;5032462;28;20056;-69
2022/11/08 07:53:25;;;;;;;7.03;5.90;;;;;;;;;;5032510;28;20029;-69
2022/11/08 07:55:52;;;;;;;6.97;5.70;;;;;;;;;;5031892;28;20033;-69
2022/11/08 07:58:17;;;;;;;7.40;5.75;;;;;;;;;;5030710;28;20044;-69
2022/11/08 08:00:44;;;;;;;7.53;5.93;;;;;;;;;;5030735;28;20025;-69
2022/11/08 08:03:12;;;;;;;7.28;6.20;;;;;;;;;;5032525;28;20021;-69
2022/11/08 08:05:41;;;;;;;7.40;6.07;;;;;;;;;;5032859;28;20092;-69
2022/11/08 08:08:07;;;;;;;6.18;5.47;;;;;;;;;;5035734;28;20037;-69
2022/11/08 08:10:34;;;;;;;7.35;6.22;;;;;;;;;;5035932;28;20032;-69
2022/11/08 08:13:00;;;;;;;6.72;5.82;;;;;;;;;;5035656;28;20109;-69
2022/11/08 08:15:26;;;;;;;8.35;5.88;;;;;;;;;;5035740;28;20362;-69
2022/11/08 08:17:52;;;;;;;7.30;6.00;;;;;;;;;;5035342;28;20113;-69
2022/11/08 08:20:18;;;;;;;6.65;5.88;;;;;;;;;;5035837;28;20060;-69
2022/11/08 08:22:44;;;;;;;6.07;5.35;;;;;;;;;;5034461;28;20023;-69
2022/11/08 08:25:10;;;;;;;7.57;5.88;;;;;;;;;;5035287;28;20021;-69
2022/11/08 08:27:36;;;;;;;6.60;5.75;;;;;;;;;;5035285;28;20022;-69
2022/11/08 08:30:01;;;;;;;7.30;5.80;;;;;;;;;;5035274;28;20022;-70
2022/11/08 08:32:27;;;;;;;7.13;5.95;;;;;;;;;;5034122;28;20075;-69
2022/11/08 08:34:52;;;;;;;7.53;5.90;;;;;;;;;;5035186;28;20033;-69
2022/11/08 08:37:18;;;;;;;7.00;5.53;;;;;;;;;;5035123;28;20025;-70
2022/11/08 08:39:43;;;;;;;7.38;6.05;;;;;;;;;;5035348;28;20037;-69
2022/11/08 08:42:09;;;;;;;6.20;5.60;;;;;;;;;;5035045;28;20473;-69
2022/11/08 08:44:34;;;;;;;6.72;5.75;;;;;;;;;;5034978;28;20029;-69
2022/11/08 08:47:00;;;;;;;7.20;6.20;;;;;;;;;;5035050;28;20049;-69
2022/11/08 08:49:25;;;;;;;6.82;5.55;;;;;;;;;;5034859;28;20059;-69
2022/11/08 08:51:51;;;;;;;6.18;5.50;;;;;;;;;;5042715;28;20033;-70
2022/11/08 08:54:16;;;;;;;6.10;5.50;;;;;;;;;;5043175;28;20117;-70
2022/11/08 08:56:42;;;;;;;6.65;5.72;;;;;;;;;;5043235;28;20017;-69
2022/11/08 08:59:07;;;;;;;6.40;5.35;;;;;;;;;;5045078;28;20472;-69
2022/11/08 09:01:33;;;;;;;7.38;5.80;;;;;;;;;;5042496;28;20025;-70
2022/11/08 09:03:58;;;;;;;7.35;5.47;;;;;;;;;;5035481;28;20100;-69
2022/11/08 09:06:24;;;;;;;6.72;5.65;;;;;;;;;;5035433;28;20029;-71
2022/11/08 09:08:49;;;;;;;6.78;5.68;;;;;;;;;;5036295;28;20511;-70
2022/11/08 09:11:15;;;;;;;8.70;5.18;;;;;;;;;;5054339;28;20428;-70
2022/11/08 09:13:41;;;;;;;6.80;5.80;;;;;;;;;;5040849;28;20474;-69
2022/11/08 09:16:09;;;;;;;6.28;5.40;;;;;;;;;;5034354;28;20059;-70
2022/11/08 09:18:35;;;;;;;6.28;5.55;;;;;;;;;;5033375;28;20075;-70
2022/11/08 09:21:03;;;;;;;5.95;5.05;;;;;;;;;;5033054;28;20026;-69
2022/11/08 09:23:28;;;;;;;6.90;5.75;;;;;;;;;;5034248;28;20112;-70
2022/11/08 09:26:01;;;;;;;6.47;5.70;;;;;;;;;;5034052;28;20112;-69
2022/11/08 09:28:30;;;;;;;6.25;5.40;;;;;;;;;;5034218;28;20033;-70
2022/11/08 09:31:05;;;;;;;7.22;5.57;;;;;;;;;;5035091;28;20029;-69
2022/11/08 09:33:30;;;;;;;6.45;5.45;;;;;;;;;;5037837;28;20056;-70
2022/11/08 09:35:58;;;;;;;6.30;5.60;;;;;;;;;;5045120;28;20056;-70
2022/11/08 09:38:24;;;;;;;7.40;5.72;;;;;;;;;;5054188;28;20389;-69
2022/11/08 09:40:59;;;;;;;8.65;5.93;;;;;;;;;;5052702;28;20031;-69
2022/11/08 09:43:28;;;;;;;7.35;5.75;;;;;;;;;;5048881;28;20108;-71
2022/11/08 09:45:56;;;;;;;6.00;5.40;;;;;;;;;;5033750;28;20037;-69
2022/11/08 09:48:34;;;;;;;7.45;5.75;;;;;;;;;;5033771;28;20017;-70
2022/11/08 09:51:14;;;;;;;7.13;5.60;;;;;;;;;;5033984;28;20113;-69
2022/11/08 09:53:44;;;;;;;;;;;;;;;;;;5036701;28;20491;-71
2022/11/08 09:56:22;;;;;;;5.57;5.00;;;;;;;;;;5041434;28;20288;-71
2022/11/08 09:58:53;;;;;;;7.13;5.60;;;;;;;;;;5042245;28;20095;-71
2022/11/08 10:01:21;;;;;;;7.50;6.00;;;;;;;;;;5040235;28;20041;-71
2022/11/08 10:03:51;;;;;;;6.03;5.25;;;;;;;;;;5033455;28;20033;-71
2022/11/08 10:06:19;;;;;;;7.75;5.50;;;;;;;;;;5031993;28;20041;-70
2022/11/08 10:09:05;;;;;;;5.60;5.10;;;;;;;;;;5040806;28;20115;-70
2022/11/08 10:11:55;;;;;;;6.65;5.20;;;;;;;;;;5033452;28;20026;-71
2022/11/08 10:14:36;;;;;;;5.95;5.30;;;;;;;;;;5038710;28;20047;-70
2022/11/08 10:17:20;;;;;;;7.32;5.63;;;;;;;;;;5039167;28;20028;-70
2022/11/08 10:20:13;;;;;;;6.57;5.53;;;;;;;;;;5040312;28;20025;-71
2022/11/08 10:22:57;;;;;;;6.78;5.60;;;;;;;;;;5053097;28;20060;-70
2022/11/08 10:25:35;;;;;;;6.18;4.75;;;;;;;;;;5040962;28;20499;-71
2022/11/08 10:28:03;;;;;;;6.22;5.22;;;;;;;;;;5039020;28;20018;-68
2022/11/08 10:30:32;;;;;;;8.55;5.90;;;;;;;;;;5031161;28;20938;-72
2022/11/08 10:32:58;;;;;;;7.15;5.97;;;;;;;;;;5041094;28;20493;-69
2022/11/08 10:35:40;;;;;;;7.78;5.80;;;;;;;;;;5041177;28;20042;-69
2022/11/08 10:38:21;;;;;;;7.28;5.57;;;;;;;;;;5041566;28;20018;-69
2022/11/08 10:41:34;;;;;;;5.97;5.38;;;;;;;;;;5041060;28;20033;-70
2022/11/08 10:44:16;;;;;;;6.60;5.13;;;;;;;;;;4996195;28;20058;-73
2022/11/08 10:46:48;;;;;;;8.05;5.75;;;;;;;;;;4996413;28;20030;-72
2022/11/08 10:49:24;;;;;;;7.90;5.68;;;;;;;;;;5022025;28;20037;-70
2022/11/08 10:51:55;;;;;;;6.57;5.00;;;;;;;;;;5045872;28;20054;-69
2022/11/08 10:54:40;;;;;;;5.72;5.03;;;;;;;;;;5050812;28;20029;-69
2022/11/08 10:57:06;;;;;;;6.88;5.60;;;;;;;;;;5050956;28;20025;-70
2022/11/08 10:59:32;;;;;;;8.85;5.88;;;;;;;;;;5051010;28;20569;-70
2022/11/08 11:01:58;;;;;;;10.07;5.93;;;;;;;;;;5050876;28;20029;-70
2022/11/08 11:04:29;;;;;;;7.65;5.95;;;;;;;;;;5050666;28;20032;-72
2022/11/08 11:07:01;;;;;;;8.80;6.10;;;;;;;;;;5045665;28;20497;-71
2022/11/08 11:09:27;;;;;;;7.85;5.88;;;;;;;;;;5030040;28;20037;-70
2022/11/08 11:11:58;;;;;;;7.28;6.40;;;;;;;;;;5046005;28;20087;-72
2022/11/08 11:14:24;;;;;;;8.00;6.00;;;;;;;;;;5050695;28;20489;-72
2022/11/08 11:17:14;;;;;;;6.55;5.85;;;;;;;;;;5050630;28;20098;-71
2022/11/08 11:19:50;;;;;;;6.90;5.75;;;;;;;;;;5029730;28;20041;-71
2022/11/08 11:22:32;;;;;;;7.75;6.22;;;;;;;;;;5029207;28;20112;-71
2022/11/08 11:25:06;;;;;;;8.80;5.88;;;;;;;;;;5032639;28;20029;-71
2022/11/08 11:27:35;;;;;;;7.90;6.05;;;;;;;;;;5036414;28;20038;-70
2022/11/08 11:30:32;;;;;;;9.73;6.28;;;;;;;;;;5031143;28;20101;-71
2022/11/08 11:33:25;;;;;;;7.82;6.32;;;;;;;;;;5030506;28;20525;-70
2022/11/08 11:36:15;;;;;;;8.02;5.88;;;;;;;;;;5030471;28;20084;-70
2022/11/08 11:38:51;;;;;;;7.55;6.10;;;;;;;;;;5030611;28;20026;-72
2022/11/08 11:41:28;;;;;;;7.88;6.53;;;;;;;;;;5031856;28;20048;-71
2022/11/08 11:44:02;;;;;;;7.68;6.75;;;;;;;;;;5034575;28;20057;-71
2022/11/08 11:46:42;;;;;;;8.82;6.28;;;;;;;;;;5039780;28;20039;-71
2022/11/08 11:49:15;;;;;;;8.80;6.07;;;;;;;;;;5054745;28;20491;-72
2022/11/08 11:51:41;;;;;;;8.27;6.15;;;;;;;;;;5034679;28;20033;-71
2022/11/08 11:54:10;;;;;;;8.73;6.32;;;;;;;;;;5034880;28;20040;-71
2022/11/08 11:57:03;;;;;;;8.65;6.93;;;;;;;;;;5033264;28;20024;-71
2022/11/08 11:59:29;;;;;;;7.72;6.00;;;;;;;;;;5033698;28;20037;-71
2022/11/08 12:02:22;;;;;;;7.68;6.00;;;;;;;;;;5032260;28;20120;-71
2022/11/08 12:05:06;;;;;;;10.02;6.80;;;;;;;;;;5030868;28;20048;-70
2022/11/08 12:07:36;;;;;;;7.65;5.78;;;;;;;;;;5032872;28;20034;-71
2022/11/08 12:10:23;;;;;;;9.77;6.75;;;;;;;;;;5031497;28;20096;-70
2022/11/08 12:13:07;;;;;;;9.25;6.70;;;;;;;;;;5031869;28;20034;-72
2022/11/08 12:15:51;;;;;;;9.45;6.60;;;;;;;;;;5032874;28;20074;-72
2022/11/08 12:18:26;;;;;;;8.35;6.43;;;;;;;;;;5030650;28;20036;-73
2022/11/08 12:21:01;;;;;;;9.70;6.72;;;;;;;;;;5035244;28;20418;-73
2022/11/08 12:23:43;;;;;;;8.93;6.50;;;;;;;;;;5032021;28;20035;-73
2022/11/08 12:26:41;;;;;;;9.02;6.93;;;;;;;;;;5034231;28;20036;-71
2022/11/08 12:29:12;;;;;;;9.57;6.97;;;;;;;;;;5029059;28;20041;-71
2022/11/08 12:32:08;;;;;;;8.45;6.47;;;;;;;;;;5040854;28;20663;-70
2022/11/08 12:35:12;;;;;;;10.13;7.10;;;;;;;;;;5041887;28;20036;-70
2022/11/08 12:37:47;;;;;;;9.00;6.93;;;;;;;;;;5053449;28;20043;-69
2022/11/08 12:40:31;;;;;;;9.15;6.85;;;;;;;;;;5014006;28;20080;-69
2022/11/08 12:43:20;;;;;;;11.32;7.35;;;;;;;;;;5013794;28;20363;-71
2022/11/08 12:46:17;;;;;;;8.88;7.05;;;;;;;;;;5047608;28;20036;-71
2022/11/08 12:49:06;;;;;;;9.82;7.10;;;;;;;;;;5052180;28;20036;-71
2022/11/08 12:52:03;;;;;;;9.20;7.38;;;;;;;;;;5053409;28;20031;-70
2022/11/08 12:54:44;;;;;;;9.68;7.22;;;;;;;;;;5051965;28;20048;-71
2022/11/08 12:57:13;;;;;;;10.07;7.18;;;;;;;;;;5053152;28;20298;-71
2022/11/08 12:59:43;;;;;;;10.17;7.33;;;;;;;;;;5051803;28;20032;-70
2022/11/08 13:02:18;;;;;;;9.43;7.32;;;;;;;;;;5053890;28;20405;-71
2022/11/08 13:05:18;;;;;;;8.55;6.93;;;;;;;;;;5035815;28;20626;-70
2022/11/08 13:07:49;;;;;;;;;;;;;;;;;;5065268;28;20520;-71
2022/11/08 13:10:22;;;;;;;14.70;9.82;;;;;;;;;;5020728;28;20020;-71
2022/11/08 13:13:14;;;;;;;18.08;10.43;;;;;;;;;;5016083;28;20053;-71
2022/11/08 13:16:08;;;;;;;17.98;10.57;;;;;;;;;;5012278;28;20033;-71
2022/11/08 13:18:41;;;;;;;17.52;10.73;;;;;;;;;;5029056;28;20033;-69
2022/11/08 13:21:28;;;;;;;15.73;11.13;;;;;;;;;;5020834;28;20029;-69
2022/11/08 13:24:00;;;;;;;18.83;11.95;;;;;;;;;;5013117;28;20556;-70
2022/11/08 13:26:29;;;;;;;17.75;10.77;;;;;;;;;;5013370;28;20059;-69
2022/11/08 13:29:15;;;;;;;16.33;10.45;;;;;;;;;;5012726;28;20084;-69
2022/11/08 13:31:44;;;;;;;15.00;9.90;;;;;;;;;;5044375;28;20382;-69
2022/11/08 13:34:18;;;;;;;13.80;9.38;;;;;;;;;;5029919;28;20377;-69
2022/11/08 13:37:21;;;;;;;12.82;8.93;;;;;;;;;;5026907;28;20029;-69
2022/11/08 13:39:52;;;;;;;14.48;9.55;;;;;;;;;;5032471;28;20098;-69
2022/11/08 13:42:18;;;;;;;12.07;9.02;;;;;;;;;;5032304;28;20025;-69
2022/11/08 13:44:53;;;;;;;13.95;9.60;;;;;;;;;;5032635;28;20029;-69
2022/11/08 13:47:30;;;;;;;17.33;10.40;;;;;;;;;;5029552;28;20473;-69
2022/11/08 13:50:32;;;;;;;17.30;10.68;;;;;;;;;;5012840;28;20044;-69
2022/11/08 13:53:03;;;;;;;14.73;10.43;;;;;;;;;;5012441;28;20053;-69
2022/11/08 13:55:41;;;;;;;16.33;9.95;;;;;;;;;;5022007;28;20044;-68
2022/11/08 13:58:28;;;;;;;16.55;10.38;;;;;;;;;;5031933;28;20025;-68
2022/11/08 14:00:55;;;;;;;16.92;10.52;;;;;;;;;;5032058;28;20603;-67
2022/11/08 14:03:32;;;;;;;15.98;9.68;;;;;;;;;;5016227;28;20033;-67
2022/11/08 14:06:04;;;;;;;16.25;9.68;;;;;;;;;;5012141;28;20609;-69
2022/11/08 14:08:38;;;;;;;18.38;9.88;;;;;;;;;;5011957;28;20057;-69
2022/11/08 14:11:28;;;;;;;15.77;9.32;;;;;;;;;;5012296;28;20034;-69
2022/11/08 14:14:13;;;;;;;13.82;9.52;;;;;;;;;;5012104;28;20100;-68
2022/11/08 14:17:11;;;;;;;12.95;9.77;;;;;;;;;;5012174;28;20034;-70
2022/11/08 14:19:39;;;;;;;15.55;9.85;;;;;;;;;;5022773;28;20044;-70
2022/11/08 14:22:14;;;;;;;16.00;9.25;;;;;;;;;;5019170;28;20039;-67
2022/11/08 14:24:39;;;;;;;17.73;10.10;;;;;;;;;;5031673;28;20033;-69
2022/11/08 14:27:05;;;;;;;14.95;9.63;;;;;;;;;;5031605;28;20036;-68
2022/11/08 14:29:31;;;;;;;15.32;9.77;;;;;;;;;;5031520;28;20037;-67
2022/11/08 14:32:14;;;;;;;14.65;9.80;;;;;;;;;;5031728;28;20029;-67
2022/11/08 14:34:42;;;;;;;15.02;10.00;;;;;;;;;;5031388;28;20017;-69
2022/11/08 14:37:19;;;;;;;14.48;9.70;;;;;;;;;;5031647;28;20048;-67
2022/11/08 14:39:45;;;;;;;14.45;9.60;;;;;;;;;;5030091;28;20689;-69
2022/11/08 14:42:23;;;;;;;15.52;10.25;;;;;;;;;;5031676;28;20021;-67
2022/11/08 14:44:55;;;;;;;14.52;9.82;;;;;;;;;;5031441;28;20090;-67
2022/11/08 14:47:23;;;;;;;15.23;10.18;;;;;;;;;;5031131;28;20037;-67
2022/11/08 14:49:49;;;;;;;14.77;10.13;;;;;;;;;;5031293;28;20505;-68
2022/11/08 14:52:30;;;;;;;14.23;9.85;;;;;;;;;;5031083;28;20037;-67
2022/11/08 14:55:08;;;;;;;13.13;9.85;;;;;;;;;;5031053;28;20064;-68
2022/11/08 14:57:38;;;;;;;14.20;9.27;;;;;;;;;;5031039;28;20404;-67
2022/11/08 15:00:17;;;;;;;14.93;9.85;;;;;;;;;;5030973;28;20030;-66
2022/11/08 15:02:48;;;;;;;16.13;9.83;;;;;;;;;;5033376;28;20040;-66
2022/11/08 15:05:34;;;;;;;13.02;9.55;;;;;;;;;;5039131;28;20089;-67
2022/11/08 15:08:01;;;;;;;15.05;10.70;;;;;;;;;;5050662;28;20098;-67
2022/11/08 15:10:28;;;;;;;14.35;9.63;;;;;;;;;;5042282;28;20029;-67
2022/11/08 15:12:54;;;;;;;13.80;9.48;;;;;;;;;;5040333;28;20037;-67
2022/11/08 15:15:25;;;;;;;14.85;9.95;;;;;;;;;;5035256;28;20029;-67
2022/11/08 15:18:25;;;;;;;15.82;10.23;;;;;;;;;;5036511;28;20064;-66
2022/11/08 15:21:01;;;;;;;16.55;9.63;;;;;;;;;;5026852;28;20041;-67